Elmendorf AFB

About
Name: Elmendorf AFB
Identifier:  EDF/PAED
Local Time:  22. Aug 20:54 AKDT
Description: Elmendorf Air Force Base is a United States Air Force facility in Anchorage, Alaska. Originally known as Elmendorf Field, it became Elmendorf Air Force Base after World War II. In 2010 it was amalgamated with nearby Fort Richardson to form Joint Base Elmendorf-Richardson.
Source: Wikipedia
Location
Flights per Day
0 flights
Distance: 3,757km (2,334mi)
Punctuality
66% (0 flights per day delayed)
Delay Average: 223 minutes
Current Weather
 18 C (Humidity: 39%)
  8kt (14km/h / 9mph) from 260°
  14km (9 mi.)
 Haze
 METAR PAED 230356Z 26008KT 9SM HZ CLR 18/04 A2955 RMK AO2A SLP002 T01790037 $

Current Flights

Departures
Number Departure To Airline
Arrivals
Number Arrival From Airline

Current Delays

Departures
N/A
Arrivals
N/A

Destinations

Top Destinations
Airport Flights
per week
Seats
per week
  Fairfield (SUU) 2 - 0 0
  Minneapolis (MSP) 2 189 0 27
  Okinawa (DNA) 0 - 0 0
  Osan (OSN) 0 - 0 0
  Hong Kong (HKG) 0 - 0 0
  Honolulu (HNL) 0 - 0 0
  Tokyo (OKO) 0 - 0 0
  Anchorage (MRI) 0 - 0 0

Airlines & Planes

Top Airlines
Airline Flights
per Day
Seats
per Day
  Kalitta Air 0 -
  Sun Country Airlines 0 27
  Atlas Air 0 -
  Air Transport International 0 0
Top Plane Types
Model Flights Seats
Boeing B737-800 0.3/day 27/day 27
Boeing B747-400 0.3/day - 0
Boeing B747-200 0.3/day - 0
Boeing B767-200 0.1/day - -0.1
Boeing B747-100 0.1/day - 0